createdAt,value
2023-05-14T18:41:32.783Z,4.10
2023-05-14T18:43:59.180Z,3.60
2023-05-14T18:46:30.760Z,5.90
2023-05-14T18:48:59.137Z,14.70
2023-05-14T18:51:30.007Z,6.90
2023-05-14T18:53:59.045Z,5.50
2023-05-14T18:56:25.568Z,8.90
2023-05-14T18:58:53.017Z,5.50
2023-05-14T19:01:20.563Z,5.80
2023-05-14T19:03:47.024Z,3.90
2023-05-14T19:06:13.574Z,4.40
2023-05-14T19:08:40.810Z,5.30
2023-05-14T19:11:07.269Z,4.30
2023-05-14T19:13:33.914Z,8.70
2023-05-14T19:16:00.357Z,5.10
2023-05-14T19:18:26.844Z,5.70
2023-05-14T19:20:53.225Z,5.70
2023-05-14T19:23:19.581Z,8.70
2023-05-14T19:25:45.938Z,4.50
2023-05-14T19:28:13.708Z,8.30
2023-05-14T19:30:40.656Z,10.10
2023-05-14T19:33:07.167Z,7.90
2023-05-14T19:35:33.962Z,5.70
2023-05-14T19:38:00.232Z,4.50
2023-05-14T19:40:26.590Z,7.50
2023-05-14T19:42:55.418Z,6.50
2023-05-14T19:45:22.108Z,9.80
2023-05-14T19:47:48.619Z,11.50
2023-05-14T19:50:15.293Z,12.30
2023-05-14T19:52:41.836Z,9.30
2023-05-14T19:55:08.607Z,7.70
2023-05-14T19:57:35.067Z,10.20
2023-05-14T20:00:01.373Z,14.30
2023-05-14T20:02:31.309Z,10.70
2023-05-14T20:04:57.892Z,11.80
2023-05-14T20:07:25.162Z,11.70
2023-05-14T20:09:51.629Z,11.90
2023-05-14T20:12:18.010Z,12.70
2023-05-14T20:14:44.379Z,17.80
2023-05-14T20:17:10.993Z,11.20
2023-05-14T20:19:37.314Z,13.40
2023-05-14T20:22:03.973Z,11.00
2023-05-14T20:24:30.705Z,12.50
2023-05-14T20:26:57.005Z,13.20
2023-05-14T20:29:23.353Z,12.50
2023-05-14T20:31:49.737Z,9.90
2023-05-14T20:34:16.167Z,8.80
2023-05-14T20:36:42.482Z,12.50
2023-05-14T20:39:10.334Z,12.50
